CheckWX is a tool to help pilots better visualize weather data.  It is not intended as a substitute for an official pre-flight weather briefing.

11:59:32 UTC

KEED METAR
Needles Airport
Needles, California, USA
Current

1 hour ago

KEED 161056Z AUTO 00000KT 10SM CLR 20/M03 A2995 RMK AO2 SLP116 T02001028
Observed
Oct-16 @ 10:56 UTC
Visibility
10 SM
Flight Rules
VFR
Cloud Levels
  • Clear skies
Temperature
20°C / 68°F
Dewpoint
-3°C / 27°F
Humidity
21%
Altimeter
29.95" Hg
Pressure
1014.22 hPa
Previous

2 hours ago

KEED 160956Z AUTO 36004KT 10SM CLR 21/M03 A2996 RMK AO2 SLP116 T02111028
Observed
Oct-16 @ 09:56 UTC
Wind
  • 360° at 4 KTS
Visibility
10 SM
Flight Rules
VFR
Cloud Levels
  • Clear skies
Temperature
21°C / 70°F
Dewpoint
-3°C / 27°F
Humidity
20%
Altimeter
29.96" Hg
Pressure
1014.52 hPa
Previous

3 hours ago

KEED 160856Z AUTO 00000KT 10SM CLR 21/M02 A2997 RMK AO2 SLP122 T02111022 50003
Observed
Oct-16 @ 08:56 UTC
Visibility
10 SM
Flight Rules
VFR
Cloud Levels
  • Clear skies
Temperature
21°C / 70°F
Dewpoint
-2°C / 28°F
Humidity
21%
Altimeter
29.97" Hg
Pressure
1014.92 hPa